sensor_id;sensor_type;location;lat;lon;timestamp;pressure;altitude;pressure_sealevel;temperature;humidity
4326;BME280;58429;49.826;10.880;2023-12-28T00:00:40;98680;;;5.35;79.39
4326;BME280;58429;49.826;10.880;2023-12-28T00:01:41;98671;;;5.37;79.43
4326;BME280;58429;49.826;10.880;2023-12-28T00:02:40;98669;;;5.35;79.35
4326;BME280;58429;49.826;10.880;2023-12-28T00:03:40;98666;;;5.37;79.33
4326;BME280;58429;49.826;10.880;2023-12-28T00:04:40;98670;;;5.31;79.06
4326;BME280;58429;49.826;10.880;2023-12-28T00:05:40;98666;;;5.31;79.2
4326;BME280;58429;49.826;10.880;2023-12-28T00:06:40;98665;;;5.28;79.25
4326;BME280;58429;49.826;10.880;2023-12-28T00:07:40;98662;;;5.29;79.32
4326;BME280;58429;49.826;10.880;2023-12-28T00:08:41;98657;;;5.25;79.35
4326;BME280;58429;49.826;10.880;2023-12-28T00:09:40;98660;;;5.23;79.38
4326;BME280;58429;49.826;10.880;2023-12-28T00:10:41;98658;;;5.29;79.44
4326;BME280;58429;49.826;10.880;2023-12-28T00:11:40;98662;;;5.24;79.39
4326;BME280;58429;49.826;10.880;2023-12-28T00:12:40;98660;;;5.21;79.4
4326;BME280;58429;49.826;10.880;2023-12-28T00:13:40;98659;;;5.17;79.4
4326;BME280;58429;49.826;10.880;2023-12-28T00:14:40;98661;;;5.13;79.44
4326;BME280;58429;49.826;10.880;2023-12-28T00:15:41;98653;;;5.19;79.4
4326;BME280;58429;49.826;10.880;2023-12-28T00:16:40;98648;;;5.19;79.39
4326;BME280;58429;49.826;10.880;2023-12-28T00:17:40;98653;;;5.12;79.41
4326;BME280;58429;49.826;10.880;2023-12-28T00:18:41;98647;;;5.15;79.44
4326;BME280;58429;49.826;10.880;2023-12-28T00:19:40;98644;;;5.14;79.36
4326;BME280;58429;49.826;10.880;2023-12-28T00:20:45;98640;;;5.18;79.35
4326;BME280;58429;49.826;10.880;2023-12-28T00:21:40;98641;;;5.14;79.24
4326;BME280;58429;49.826;10.880;2023-12-28T00:22:41;98639;;;5.23;79.19
4326;BME280;58429;49.826;10.880;2023-12-28T00:23:41;98651;;;5.25;79.06
4326;BME280;58429;49.826;10.880;2023-12-28T00:24:41;98645;;;5.28;78.88
4326;BME280;58429;49.826;10.880;2023-12-28T00:25:41;98640;;;5.34;78.93
4326;BME280;58429;49.826;10.880;2023-12-28T00:26:40;98642;;;5.31;78.82
4326;BME280;58429;49.826;10.880;2023-12-28T00:27:40;98646;;;5.3;78.83
4326;BME280;58429;49.826;10.880;2023-12-28T00:28:40;98641;;;5.32;78.86
4326;BME280;58429;49.826;10.880;2023-12-28T00:29:41;98643;;;5.32;78.91
4326;BME280;58429;49.826;10.880;2023-12-28T00:30:40;98637;;;5.32;78.9
4326;BME280;58429;49.826;10.880;2023-12-28T00:31:42;98647;;;5.32;78.94
4326;BME280;58429;49.826;10.880;2023-12-28T00:32:40;98645;;;5.32;78.97
4326;BME280;58429;49.826;10.880;2023-12-28T00:33:40;98643;;;5.33;78.89
4326;BME280;58429;49.826;10.880;2023-12-28T00:34:40;98645;;;5.34;78.85
4326;BME280;58429;49.826;10.880;2023-12-28T00:35:40;98647;;;5.34;78.88
4326;BME280;58429;49.826;10.880;2023-12-28T00:36:40;98648;;;5.35;78.81
4326;BME280;58429;49.826;10.880;2023-12-28T00:37:41;98651;;;5.35;78.75
4326;BME280;58429;49.826;10.880;2023-12-28T00:38:42;98651;;;5.34;78.63
4326;BME280;58429;49.826;10.880;2023-12-28T00:39:40;98655;;;5.34;78.53
4326;BME280;58429;49.826;10.880;2023-12-28T00:40:40;98650;;;5.34;78.43
4326;BME280;58429;49.826;10.880;2023-12-28T00:41:40;98640;;;5.35;78.35
4326;BME280;58429;49.826;10.880;2023-12-28T00:42:40;98651;;;5.34;78.12
4326;BME280;58429;49.826;10.880;2023-12-28T00:43:40;98641;;;5.35;78.1
4326;BME280;58429;49.826;10.880;2023-12-28T00:44:40;98638;;;5.35;78.17
4326;BME280;58429;49.826;10.880;2023-12-28T00:45:40;98638;;;5.36;78.25
4326;BME280;58429;49.826;10.880;2023-12-28T00:46:40;98639;;;5.37;78.34
4326;BME280;58429;49.826;10.880;2023-12-28T00:47:40;98642;;;5.36;78.38
4326;BME280;58429;49.826;10.880;2023-12-28T00:48:40;98646;;;5.35;78.4
4326;BME280;58429;49.826;10.880;2023-12-28T00:49:41;98643;;;5.38;78.39
4326;BME280;58429;49.826;10.880;2023-12-28T00:50:40;98642;;;5.36;78.38
4326;BME280;58429;49.826;10.880;2023-12-28T00:51:40;98648;;;5.38;78.38
4326;BME280;58429;49.826;10.880;2023-12-28T00:52:41;98657;;;5.39;78.38
4326;BME280;58429;49.826;10.880;2023-12-28T00:53:41;98647;;;5.38;78.28
4326;BME280;58429;49.826;10.880;2023-12-28T00:54:40;98650;;;5.34;78.23
4326;BME280;58429;49.826;10.880;2023-12-28T00:55:41;98644;;;5.33;78.18
4326;BME280;58429;49.826;10.880;2023-12-28T00:56:40;98650;;;5.27;78.14
4326;BME280;58429;49.826;10.880;2023-12-28T00:57:41;98652;;;5.24;78.13
4326;BME280;58429;49.826;10.880;2023-12-28T00:58:41;98664;;;5.18;78.13
4326;BME280;58429;49.826;10.880;2023-12-28T00:59:40;98663;;;5.12;78.12
4326;BME280;58429;49.826;10.880;2023-12-28T01:00:41;98654;;;5.15;78.3
4326;BME280;58429;49.826;10.880;2023-12-28T01:01:41;98663;;;5.12;78.33
4326;BME280;58429;49.826;10.880;2023-12-28T01:02:40;98663;;;5.15;78.31
4326;BME280;58429;49.826;10.880;2023-12-28T01:03:46;98660;;;5.16;78.28
4326;BME280;58429;49.826;10.880;2023-12-28T01:04:41;98663;;;5.17;78.32
4326;BME280;58429;49.826;10.880;2023-12-28T01:05:41;98665;;;5.2;78.3
4326;BME280;58429;49.826;10.880;2023-12-28T01:06:42;98650;;;5.18;78.27
4326;BME280;58429;49.826;10.880;2023-12-28T01:07:41;98651;;;5.16;78.24
4326;BME280;58429;49.826;10.880;2023-12-28T01:08:41;98648;;;5.15;78.19
4326;BME280;58429;49.826;10.880;2023-12-28T01:09:41;98658;;;5.13;78.12
4326;BME280;58429;49.826;10.880;2023-12-28T01:10:40;98660;;;5.09;78.19
4326;BME280;58429;49.826;10.880;2023-12-28T01:11:41;98667;;;5.09;78.15
4326;BME280;58429;49.826;10.880;2023-12-28T01:12:40;98680;;;5.08;78.03
4326;BME280;58429;49.826;10.880;2023-12-28T01:13:41;98681;;;5.01;77.95
4326;BME280;58429;49.826;10.880;2023-12-28T01:14:41;98673;;;4.96;78.16
4326;BME280;58429;49.826;10.880;2023-12-28T01:15:41;98671;;;4.97;78.26
4326;BME280;58429;49.826;10.880;2023-12-28T01:16:41;98668;;;4.99;78.35
4326;BME280;58429;49.826;10.880;2023-12-28T01:17:41;98669;;;4.97;78.26
4326;BME280;58429;49.826;10.880;2023-12-28T01:18:41;98681;;;5;78.24
4326;BME280;58429;49.826;10.880;2023-12-28T01:19:41;98683;;;4.97;78.17
4326;BME280;58429;49.826;10.880;2023-12-28T01:20:41;98684;;;5.01;78.14
4326;BME280;58429;49.826;10.880;2023-12-28T01:21:41;98687;;;5.04;78.04
4326;BME280;58429;49.826;10.880;2023-12-28T01:22:40;98689;;;5.02;77.95
4326;BME280;58429;49.826;10.880;2023-12-28T01:23:40;98690;;;5.03;77.92
4326;BME280;58429;49.826;10.880;2023-12-28T01:24:41;98687;;;5.04;78.01
4326;BME280;58429;49.826;10.880;2023-12-28T01:25:40;98681;;;5.05;78.04
4326;BME280;58429;49.826;10.880;2023-12-28T01:26:41;98683;;;5.04;78.05
4326;BME280;58429;49.826;10.880;2023-12-28T01:27:41;98678;;;4.99;78.15
4326;BME280;58429;49.826;10.880;2023-12-28T01:28:41;98683;;;4.97;78.22
4326;BME280;58429;49.826;10.880;2023-12-28T01:29:41;98686;;;4.96;78.29
4326;BME280;58429;49.826;10.880;2023-12-28T01:30:41;98686;;;4.94;78.32
4326;BME280;58429;49.826;10.880;2023-12-28T01:31:41;98684;;;4.91;78.39
4326;BME280;58429;49.826;10.880;2023-12-28T01:32:41;98687;;;4.86;78.47
4326;BME280;58429;49.826;10.880;2023-12-28T01:33:41;98694;;;4.85;78.54
4326;BME280;58429;49.826;10.880;2023-12-28T01:34:41;98699;;;4.86;78.61
4326;BME280;58429;49.826;10.880;2023-12-28T01:35:41;98705;;;4.81;78.66
4326;BME280;58429;49.826;10.880;2023-12-28T01:36:41;98701;;;4.83;78.68
4326;BME280;58429;49.826;10.880;2023-12-28T01:37:41;98701;;;4.78;78.72
4326;BME280;58429;49.826;10.880;2023-12-28T01:38:41;98710;;;4.77;78.71
4326;BME280;58429;49.826;10.880;2023-12-28T01:39:41;98700;;;4.65;78.59
4326;BME280;58429;49.826;10.880;2023-12-28T01:40:43;98703;;;4.62;78.37
4326;BME280;58429;49.826;10.880;2023-12-28T01:41:41;98712;;;4.57;78.33
4326;BME280;58429;49.826;10.880;2023-12-28T01:42:40;98704;;;4.46;78.29
4326;BME280;58429;49.826;10.880;2023-12-28T01:43:41;98708;;;4.41;78.33
4326;BME280;58429;49.826;10.880;2023-12-28T01:44:41;98708;;;4.37;78.39
4326;BME280;58429;49.826;10.880;2023-12-28T01:45:40;98710;;;4.33;78.55
4326;BME280;58429;49.826;10.880;2023-12-28T01:46:40;98711;;;4.32;78.69
4326;BME280;58429;49.826;10.880;2023-12-28T01:47:40;98713;;;4.3;78.84
4326;BME280;58429;49.826;10.880;2023-12-28T01:48:41;98713;;;4.3;79.08
4326;BME280;58429;49.826;10.880;2023-12-28T01:49:41;98715;;;4.28;79.28
4326;BME280;58429;49.826;10.880;2023-12-28T01:50:40;98715;;;4.27;79.4
4326;BME280;58429;49.826;10.880;2023-12-28T01:51:41;98715;;;4.28;79.47
4326;BME280;58429;49.826;10.880;2023-12-28T01:52:41;98717;;;4.29;79.53
4326;BME280;58429;49.826;10.880;2023-12-28T01:53:41;98704;;;4.31;79.64
4326;BME280;58429;49.826;10.880;2023-12-28T01:54:41;98720;;;4.34;79.55
4326;BME280;58429;49.826;10.880;2023-12-28T01:55:41;98713;;;4.36;79.5
4326;BME280;58429;49.826;10.880;2023-12-28T01:56:40;98716;;;4.37;79.44
4326;BME280;58429;49.826;10.880;2023-12-28T01:57:41;98723;;;4.39;79.34
4326;BME280;58429;49.826;10.880;2023-12-28T01:58:41;98714;;;4.4;79.22
4326;BME280;58429;49.826;10.880;2023-12-28T01:59:41;98720;;;4.49;79.19
4326;BME280;58429;49.826;10.880;2023-12-28T02:00:41;98715;;;4.51;79.12
4326;BME280;58429;49.826;10.880;2023-12-28T02:01:41;98722;;;4.51;78.97
4326;BME280;58429;49.826;10.880;2023-12-28T02:02:41;98717;;;4.52;78.95
4326;BME280;58429;49.826;10.880;2023-12-28T02:03:40;98710;;;4.51;78.84
4326;BME280;58429;49.826;10.880;2023-12-28T02:04:40;98710;;;4.49;78.82
4326;BME280;58429;49.826;10.880;2023-12-28T02:05:40;98712;;;4.48;78.75
4326;BME280;58429;49.826;10.880;2023-12-28T02:06:40;98706;;;4.45;78.74
4326;BME280;58429;49.826;10.880;2023-12-28T02:07:41;98693;;;4.42;78.73
4326;BME280;58429;49.826;10.880;2023-12-28T02:08:41;98697;;;4.41;78.73
4326;BME280;58429;49.826;10.880;2023-12-28T02:09:40;98699;;;4.37;78.56
4326;BME280;58429;49.826;10.880;2023-12-28T02:10:41;98702;;;4.32;78.64
4326;BME280;58429;49.826;10.880;2023-12-28T02:11:41;98698;;;4.3;78.78
4326;BME280;58429;49.826;10.880;2023-12-28T02:12:41;98695;;;4.27;78.85
4326;BME280;58429;49.826;10.880;2023-12-28T02:13:41;98703;;;4.28;78.92
4326;BME280;58429;49.826;10.880;2023-12-28T02:14:41;98685;;;4.24;78.9
4326;BME280;58429;49.826;10.880;2023-12-28T02:15:41;98687;;;4.18;78.95
4326;BME280;58429;49.826;10.880;2023-12-28T02:16:41;98686;;;4.15;78.96
4326;BME280;58429;49.826;10.880;2023-12-28T02:17:42;98682;;;4.13;78.93
4326;BME280;58429;49.826;10.880;2023-12-28T02:18:42;98679;;;4.1;78.95
4326;BME280;58429;49.826;10.880;2023-12-28T02:19:43;98679;;;4.03;78.95
4326;BME280;58429;49.826;10.880;2023-12-28T02:20:41;98686;;;3.94;79.02
4326;BME280;58429;49.826;10.880;2023-12-28T02:21:41;98688;;;3.94;79.09
4326;BME280;58429;49.826;10.880;2023-12-28T02:22:41;98679;;;3.88;79.16
4326;BME280;58429;49.826;10.880;2023-12-28T02:23:45;98671;;;3.86;79.16
4326;BME280;58429;49.826;10.880;2023-12-28T02:24:51;98676;;;3.84;79.24
4326;BME280;58429;49.826;10.880;2023-12-28T02:25:41;98690;;;3.81;79.29
4326;BME280;58429;49.826;10.880;2023-12-28T02:26:41;98685;;;3.8;79.4
4326;BME280;58429;49.826;10.880;2023-12-28T02:27:41;98688;;;3.76;79.53
4326;BME280;58429;49.826;10.880;2023-12-28T02:28:41;98687;;;3.69;79.6
4326;BME280;58429;49.826;10.880;2023-12-28T02:29:41;98685;;;3.7;79.66
4326;BME280;58429;49.826;10.880;2023-12-28T02:30:41;98695;;;3.68;79.76
4326;BME280;58429;49.826;10.880;2023-12-28T02:31:42;98694;;;3.71;79.81
4326;BME280;58429;49.826;10.880;2023-12-28T02:32:43;98698;;;3.75;79.82
4326;BME280;58429;49.826;10.880;2023-12-28T02:33:43;98697;;;3.77;79.75
4326;BME280;58429;49.826;10.880;2023-12-28T02:34:41;98698;;;3.79;79.75
4326;BME280;58429;49.826;10.880;2023-12-28T02:35:42;98697;;;3.79;79.71
4326;BME280;58429;49.826;10.880;2023-12-28T02:36:41;98703;;;3.81;79.74
4326;BME280;58429;49.826;10.880;2023-12-28T02:37:41;98695;;;3.85;79.61
4326;BME280;58429;49.826;10.880;2023-12-28T02:38:41;98697;;;3.87;79.47
4326;BME280;58429;49.826;10.880;2023-12-28T02:39:41;98699;;;3.87;79.42
4326;BME280;58429;49.826;10.880;2023-12-28T02:40:41;98702;;;3.9;79.35
4326;BME280;58429;49.826;10.880;2023-12-28T02:41:41;98704;;;3.9;79.3
4326;BME280;58429;49.826;10.880;2023-12-28T02:42:41;98707;;;3.96;79.28
4326;BME280;58429;49.826;10.880;2023-12-28T02:43:40;98717;;;3.98;79.17
4326;BME280;58429;49.826;10.880;2023-12-28T02:44:40;98723;;;3.97;79.09
4326;BME280;58429;49.826;10.880;2023-12-28T02:45:41;98718;;;3.99;79.02
4326;BME280;58429;49.826;10.880;2023-12-28T02:46:40;98717;;;3.97;79
4326;BME280;58429;49.826;10.880;2023-12-28T02:47:46;98720;;;4.03;78.94
4326;BME280;58429;49.826;10.880;2023-12-28T02:48:41;98724;;;3.98;78.8
4326;BME280;58429;49.826;10.880;2023-12-28T02:49:41;98719;;;4;78.72
4326;BME280;58429;49.826;10.880;2023-12-28T02:50:41;98723;;;4.02;78.65
4326;BME280;58429;49.826;10.880;2023-12-28T02:51:41;98719;;;4.03;78.57
4326;BME280;58429;49.826;10.880;2023-12-28T02:52:41;98722;;;4.05;78.45
4326;BME280;58429;49.826;10.880;2023-12-28T02:53:41;98720;;;4.08;78.57
4326;BME280;58429;49.826;10.880;2023-12-28T02:54:41;98720;;;4.01;78.61
4326;BME280;58429;49.826;10.880;2023-12-28T02:55:41;98725;;;4;78.66
4326;BME280;58429;49.826;10.880;2023-12-28T02:56:41;98727;;;4.02;78.71
4326;BME280;58429;49.826;10.880;2023-12-28T02:57:41;98719;;;3.99;78.7
4326;BME280;58429;49.826;10.880;2023-12-28T02:58:41;98718;;;3.97;78.72
4326;BME280;58429;49.826;10.880;2023-12-28T02:59:41;98710;;;3.88;78.78
4326;BME280;58429;49.826;10.880;2023-12-28T03:00:41;98715;;;3.87;78.91
4326;BME280;58429;49.826;10.880;2023-12-28T03:01:40;98715;;;3.87;79
4326;BME280;58429;49.826;10.880;2023-12-28T03:02:41;98718;;;3.83;79.05
4326;BME280;58429;49.826;10.880;2023-12-28T03:03:41;98713;;;3.83;79.12
4326;BME280;58429;49.826;10.880;2023-12-28T03:04:40;98702;;;3.79;79.16
4326;BME280;58429;49.826;10.880;2023-12-28T03:05:41;98703;;;3.73;79.2
4326;BME280;58429;49.826;10.880;2023-12-28T03:06:41;98707;;;3.7;79.26
4326;BME280;58429;49.826;10.880;2023-12-28T03:07:41;98707;;;3.66;79.37
4326;BME280;58429;49.826;10.880;2023-12-28T03:08:41;98702;;;3.61;79.42
4326;BME280;58429;49.826;10.880;2023-12-28T03:09:41;98705;;;3.62;79.51
4326;BME280;58429;49.826;10.880;2023-12-28T03:10:41;98706;;;3.63;79.51
4326;BME280;58429;49.826;10.880;2023-12-28T03:11:41;98700;;;3.58;79.55
4326;BME280;58429;49.826;10.880;2023-12-28T03:12:41;98695;;;3.52;79.67
4326;BME280;58429;49.826;10.880;2023-12-28T03:13:41;98698;;;3.57;79.69
4326;BME280;58429;49.826;10.880;2023-12-28T03:14:41;98694;;;3.57;79.71
4326;BME280;58429;49.826;10.880;2023-12-28T03:15:41;98699;;;3.53;79.71
4326;BME280;58429;49.826;10.880;2023-12-28T03:16:40;98693;;;3.51;79.73
4326;BME280;58429;49.826;10.880;2023-12-28T03:17:41;98689;;;3.56;79.75
4326;BME280;58429;49.826;10.880;2023-12-28T03:18:41;98685;;;3.54;79.73
4326;BME280;58429;49.826;10.880;2023-12-28T03:19:41;98691;;;3.57;79.67
4326;BME280;58429;49.826;10.880;2023-12-28T03:20:41;98685;;;3.52;79.69
4326;BME280;58429;49.826;10.880;2023-12-28T03:21:41;98686;;;3.54;79.72
4326;BME280;58429;49.826;10.880;2023-12-28T03:22:41;98684;;;3.48;79.67
4326;BME280;58429;49.826;10.880;2023-12-28T03:23:41;98676;;;3.49;79.7
4326;BME280;58429;49.826;10.880;2023-12-28T03:24:41;98679;;;3.43;79.81
4326;BME280;58429;49.826;10.880;2023-12-28T03:25:40;98683;;;3.39;79.86
4326;BME280;58429;49.826;10.880;2023-12-28T03:26:41;98689;;;3.41;79.91
4326;BME280;58429;49.826;10.880;2023-12-28T03:27:41;98684;;;3.38;80.03
4326;BME280;58429;49.826;10.880;2023-12-28T03:28:41;98683;;;3.35;80.18
4326;BME280;58429;49.826;10.880;2023-12-28T03:29:41;98689;;;3.34;80.25
4326;BME280;58429;49.826;10.880;2023-12-28T03:30:41;98689;;;3.33;80.34
4326;BME280;58429;49.826;10.880;2023-12-28T03:31:41;98689;;;3.34;80.4
4326;BME280;58429;49.826;10.880;2023-12-28T03:32:41;98681;;;3.33;80.39
4326;BME280;58429;49.826;10.880;2023-12-28T03:33:41;98685;;;3.33;80.45
4326;BME280;58429;49.826;10.880;2023-12-28T03:34:41;98686;;;3.33;80.57
4326;BME280;58429;49.826;10.880;2023-12-28T03:35:41;98683;;;3.31;80.53
4326;BME280;58429;49.826;10.880;2023-12-28T03:36:41;98685;;;3.3;80.47
4326;BME280;58429;49.826;10.880;2023-12-28T03:37:41;98683;;;3.33;80.4
4326;BME280;58429;49.826;10.880;2023-12-28T03:38:41;98687;;;3.31;80.3
4326;BME280;58429;49.826;10.880;2023-12-28T03:39:41;98687;;;3.33;80.26
4326;BME280;58429;49.826;10.880;2023-12-28T03:40:41;98680;;;3.35;80.05
4326;BME280;58429;49.826;10.880;2023-12-28T03:41:41;98682;;;3.42;79.82
4326;BME280;58429;49.826;10.880;2023-12-28T03:42:41;98684;;;3.46;79.49
4326;BME280;58429;49.826;10.880;2023-12-28T03:43:41;98682;;;3.51;79.5
4326;BME280;58429;49.826;10.880;2023-12-28T03:44:41;98679;;;3.47;79.44
4326;BME280;58429;49.826;10.880;2023-12-28T03:45:41;98680;;;3.52;79.33
4326;BME280;58429;49.826;10.880;2023-12-28T03:46:41;98682;;;3.55;79.25
4326;BME280;58429;49.826;10.880;2023-12-28T03:47:41;98682;;;3.56;79.18
4326;BME280;58429;49.826;10.880;2023-12-28T03:48:41;98691;;;3.57;79.14
4326;BME280;58429;49.826;10.880;2023-12-28T03:49:41;98694;;;3.58;78.99
4326;BME280;58429;49.826;10.880;2023-12-28T03:50:41;98688;;;3.59;79.07
4326;BME280;58429;49.826;10.880;2023-12-28T03:51:41;98695;;;3.59;79.25
4326;BME280;58429;49.826;10.880;2023-12-28T03:52:41;98695;;;3.58;79.3
4326;BME280;58429;49.826;10.880;2023-12-28T03:53:41;98693;;;3.54;79.38
4326;BME280;58429;49.826;10.880;2023-12-28T03:54:41;98688;;;3.59;79.45
4326;BME280;58429;49.826;10.880;2023-12-28T03:55:41;98692;;;3.54;79.43
4326;BME280;58429;49.826;10.880;2023-12-28T03:56:41;98694;;;3.56;79.46
4326;BME280;58429;49.826;10.880;2023-12-28T03:57:41;98695;;;3.59;79.52
4326;BME280;58429;49.826;10.880;2023-12-28T03:58:41;98694;;;3.55;79.49
4326;BME280;58429;49.826;10.880;2023-12-28T03:59:41;98694;;;3.48;79.62
4326;BME280;58429;49.826;10.880;2023-12-28T04:00:41;98700;;;3.48;79.81
4326;BME280;58429;49.826;10.880;2023-12-28T04:01:41;98701;;;3.48;80.02
4326;BME280;58429;49.826;10.880;2023-12-28T04:02:41;98703;;;3.47;80.16
4326;BME280;58429;49.826;10.880;2023-12-28T04:03:41;98692;;;3.48;80.11
4326;BME280;58429;49.826;10.880;2023-12-28T04:04:41;98693;;;3.48;80.09
4326;BME280;58429;49.826;10.880;2023-12-28T04:05:42;98707;;;3.5;80.08
4326;BME280;58429;49.826;10.880;2023-12-28T04:06:41;98700;;;3.54;80
4326;BME280;58429;49.826;10.880;2023-12-28T04:07:41;98704;;;3.54;79.89
4326;BME280;58429;49.826;10.880;2023-12-28T04:08:41;98700;;;3.57;79.7
4326;BME280;58429;49.826;10.880;2023-12-28T04:09:41;98696;;;3.61;79.02
4326;BME280;58429;49.826;10.880;2023-12-28T04:10:41;98698;;;3.7;78.8
4326;BME280;58429;49.826;10.880;2023-12-28T04:11:41;98697;;;3.73;78.74
4326;BME280;58429;49.826;10.880;2023-12-28T04:12:41;98690;;;3.78;78.49
4326;BME280;58429;49.826;10.880;2023-12-28T04:13:41;98691;;;3.83;78.35
4326;BME280;58429;49.826;10.880;2023-12-28T04:14:41;98695;;;3.85;78.31
4326;BME280;58429;49.826;10.880;2023-12-28T04:15:41;98685;;;3.86;78.3
4326;BME280;58429;49.826;10.880;2023-12-28T04:16:41;98690;;;3.88;78.33
4326;BME280;58429;49.826;10.880;2023-12-28T04:17:41;98687;;;3.92;78.3
4326;BME280;58429;49.826;10.880;2023-12-28T04:18:41;98684;;;3.91;78.15
4326;BME280;58429;49.826;10.880;2023-12-28T04:19:41;98688;;;3.97;78.06
4326;BME280;58429;49.826;10.880;2023-12-28T04:20:41;98684;;;3.98;77.84
4326;BME280;58429;49.826;10.880;2023-12-28T04:21:42;98689;;;4.02;77.85
4326;BME280;58429;49.826;10.880;2023-12-28T04:22:41;98687;;;4.01;78.01
4326;BME280;58429;49.826;10.880;2023-12-28T04:23:41;98689;;;4.04;78.05
4326;BME280;58429;49.826;10.880;2023-12-28T04:24:41;98693;;;4.07;78.07
4326;BME280;58429;49.826;10.880;2023-12-28T04:25:41;98691;;;4.07;78.09
4326;BME280;58429;49.826;10.880;2023-12-28T04:26:41;98691;;;4.09;78.31
4326;BME280;58429;49.826;10.880;2023-12-28T04:27:41;98690;;;4.05;78.41
4326;BME280;58429;49.826;10.880;2023-12-28T04:28:41;98695;;;4.11;78.42
4326;BME280;58429;49.826;10.880;2023-12-28T04:29:41;98702;;;4.1;78.15
4326;BME280;58429;49.826;10.880;2023-12-28T04:30:41;98694;;;4.15;78.07
4326;BME280;58429;49.826;10.880;2023-12-28T04:31:41;98699;;;4.18;77.89
4326;BME280;58429;49.826;10.880;2023-12-28T04:32:42;98689;;;4.21;77.85
4326;BME280;58429;49.826;10.880;2023-12-28T04:33:41;98698;;;4.22;77.73
4326;BME280;58429;49.826;10.880;2023-12-28T04:34:41;98694;;;4.26;77.45
4326;BME280;58429;49.826;10.880;2023-12-28T04:35:41;98700;;;4.24;77.34
4326;BME280;58429;49.826;10.880;2023-12-28T04:36:41;98696;;;4.3;77.32
4326;BME280;58429;49.826;10.880;2023-12-28T04:37:41;98689;;;4.28;77.25
4326;BME280;58429;49.826;10.880;2023-12-28T04:38:41;98691;;;4.32;77.13
4326;BME280;58429;49.826;10.880;2023-12-28T04:39:42;98696;;;4.35;77.22
4326;BME280;58429;49.826;10.880;2023-12-28T04:40:41;98706;;;4.29;77.78
4326;BME280;58429;49.826;10.880;2023-12-28T04:41:41;98699;;;4.24;78.42
4326;BME280;58429;49.826;10.880;2023-12-28T04:42:41;98708;;;4.2;78.68
4326;BME280;58429;49.826;10.880;2023-12-28T04:43:41;98704;;;4.23;78.76
4326;BME280;58429;49.826;10.880;2023-12-28T04:44:41;98706;;;4.23;78.39
4326;BME280;58429;49.826;10.880;2023-12-28T04:45:41;98706;;;4.16;78.64
4326;BME280;58429;49.826;10.880;2023-12-28T04:46:41;98697;;;4.17;78.97
4326;BME280;58429;49.826;10.880;2023-12-28T04:47:41;98696;;;4.1;79.3
4326;BME280;58429;49.826;10.880;2023-12-28T04:48:41;98698;;;3.98;79.69
4326;BME280;58429;49.826;10.880;2023-12-28T04:49:41;98703;;;4;79.75
4326;BME280;58429;49.826;10.880;2023-12-28T04:50:41;98706;;;3.94;80
4326;BME280;58429;49.826;10.880;2023-12-28T04:51:42;98702;;;3.9;80.09
4326;BME280;58429;49.826;10.880;2023-12-28T04:52:41;98707;;;3.93;80.08
4326;BME280;58429;49.826;10.880;2023-12-28T04:53:41;98710;;;3.91;80.23
4326;BME280;58429;49.826;10.880;2023-12-28T04:54:41;98709;;;3.87;80.3
4326;BME280;58429;49.826;10.880;2023-12-28T04:55:41;98710;;;3.87;80.52
4326;BME280;58429;49.826;10.880;2023-12-28T04:56:41;98704;;;3.88;80.38
4326;BME280;58429;49.826;10.880;2023-12-28T04:57:41;98703;;;3.87;80.38
4326;BME280;58429;49.826;10.880;2023-12-28T04:58:41;98704;;;3.89;80.42
4326;BME280;58429;49.826;10.880;2023-12-28T04:59:41;98708;;;3.9;80.41
4326;BME280;58429;49.826;10.880;2023-12-28T05:00:41;98709;;;3.93;80.45
4326;BME280;58429;49.826;10.880;2023-12-28T05:01:41;98710;;;3.93;80.5
4326;BME280;58429;49.826;10.880;2023-12-28T05:02:41;98716;;;3.91;80.58
4326;BME280;58429;49.826;10.880;2023-12-28T05:03:41;98722;;;3.96;80.66
4326;BME280;58429;49.826;10.880;2023-12-28T05:04:41;98720;;;3.93;80.82
4326;BME280;58429;49.826;10.880;2023-12-28T05:05:41;98719;;;3.98;80.88
4326;BME280;58429;49.826;10.880;2023-12-28T05:06:41;98717;;;3.98;81.08
4326;BME280;58429;49.826;10.880;2023-12-28T05:07:41;98725;;;4.01;81.18
4326;BME280;58429;49.826;10.880;2023-12-28T05:08:41;98721;;;3.97;81.21
4326;BME280;58429;49.826;10.880;2023-12-28T05:09:41;98715;;;4.02;81.25
4326;BME280;58429;49.826;10.880;2023-12-28T05:10:41;98721;;;4.01;81.28
4326;BME280;58429;49.826;10.880;2023-12-28T05:11:41;98729;;;4.01;81.39
4326;BME280;58429;49.826;10.880;2023-12-28T05:12:41;98720;;;4.02;81.45
4326;BME280;58429;49.826;10.880;2023-12-28T05:13:41;98716;;;4.02;81.49
4326;BME280;58429;49.826;10.880;2023-12-28T05:14:41;98724;;;4.03;81.47
4326;BME280;58429;49.826;10.880;2023-12-28T05:15:41;98713;;;4.02;81.38
4326;BME280;58429;49.826;10.880;2023-12-28T05:16:41;98719;;;4.05;81.23
4326;BME280;58429;49.826;10.880;2023-12-28T05:17:41;98718;;;4.06;81.14
4326;BME280;58429;49.826;10.880;2023-12-28T05:18:41;98723;;;4.08;81.02
4326;BME280;58429;49.826;10.880;2023-12-28T05:19:41;98717;;;4.09;80.73
4326;BME280;58429;49.826;10.880;2023-12-28T05:20:41;98723;;;4.16;80.27
4326;BME280;58429;49.826;10.880;2023-12-28T05:21:41;98726;;;4.2;79.95
4326;BME280;58429;49.826;10.880;2023-12-28T05:22:41;98722;;;4.26;79.18
4326;BME280;58429;49.826;10.880;2023-12-28T05:23:41;98719;;;4.29;78.67
4326;BME280;58429;49.826;10.880;2023-12-28T05:24:41;98722;;;4.3;78.48
4326;BME280;58429;49.826;10.880;2023-12-28T05:25:41;98717;;;4.35;78.05
4326;BME280;58429;49.826;10.880;2023-12-28T05:26:41;98723;;;4.34;77.81
4326;BME280;58429;49.826;10.880;2023-12-28T05:27:41;98723;;;4.38;77.88
4326;BME280;58429;49.826;10.880;2023-12-28T05:28:41;98722;;;4.43;77.54
4326;BME280;58429;49.826;10.880;2023-12-28T05:29:41;98723;;;4.45;77.43
4326;BME280;58429;49.826;10.880;2023-12-28T05:30:41;98722;;;4.49;77.36
4326;BME280;58429;49.826;10.880;2023-12-28T05:31:41;98721;;;4.53;77.45
4326;BME280;58429;49.826;10.880;2023-12-28T05:32:41;98723;;;4.56;77.4
4326;BME280;58429;49.826;10.880;2023-12-28T05:33:41;98730;;;4.56;77.29
4326;BME280;58429;49.826;10.880;2023-12-28T05:34:41;98731;;;4.56;77.14
4326;BME280;58429;49.826;10.880;2023-12-28T05:35:41;98731;;;4.56;77.31
4326;BME280;58429;49.826;10.880;2023-12-28T05:36:41;98729;;;4.61;76.75